Washingtn Park, Illinois
Current Conditions -  °F | °C
As of 4:53 PM on Tuesday 21 Oct 2014 (Local Time) from KCPS Reporting Station
Clear Clear  
Wind Chill: 67°   Ceiling: Unl
Heat Index: 67°   Visibility: 10mi
Dew Point: 44°   Wind: 10mph
Humidity: 44%   Direction: 30°NNE
Pressure: 30.11"   Gusts: NA
Location:  38.6057°N, 90.1182°W
Report Text: KCPS 212153Z 03009KT 10SM CLR 19/07 A3011 RMK AO2 SLP196 T01940067
Loading
Personal Weather Stations






























Interactive Weather Map
Tropical Storm Tracking
New forecast layout! Learn more

10-Day Weather Forecast

Advertisements
Track Severe Weather on mobile